createdAt,value
2022-11-20T00:03:29.752Z,84.08
2022-11-20T00:08:30.615Z,83.98
2022-11-20T00:13:32.924Z,83.83
2022-11-20T00:18:34.986Z,83.93
2022-11-20T00:23:35.998Z,84.47
2022-11-20T00:28:38.270Z,84.29
2022-11-20T00:33:39.191Z,83.70
2022-11-20T00:38:40.025Z,83.61
2022-11-20T00:43:42.460Z,83.50
2022-11-20T00:48:43.393Z,83.70
2022-11-20T00:53:44.704Z,83.68
2022-11-20T00:58:49.377Z,83.42
2022-11-20T01:03:52.325Z,83.63
2022-11-20T01:08:55.564Z,83.56
2022-11-20T01:13:59.740Z,83.10
2022-11-20T01:19:02.257Z,82.95
2022-11-20T01:24:04.176Z,83.10
2022-11-20T01:29:07.256Z,83.29
2022-11-20T01:34:11.050Z,83.05
2022-11-20T01:39:14.386Z,83.13
2022-11-20T01:44:19.600Z,83.01
2022-11-20T01:49:25.880Z,83.29
2022-11-20T01:54:31.883Z,82.94
2022-11-20T01:59:34.542Z,83.48
2022-11-20T02:04:35.543Z,83.22
2022-11-20T02:09:36.316Z,83.93
2022-11-20T02:14:38.470Z,83.03
2022-11-20T02:19:39.270Z,83.81
2022-11-20T02:24:41.833Z,83.39
2022-11-20T02:29:47.266Z,83.80
2022-11-20T02:34:48.136Z,83.76
2022-11-20T02:39:53.275Z,83.82
2022-11-20T02:44:54.056Z,83.88
2022-11-20T02:49:54.856Z,83.86
2022-11-20T02:54:56.990Z,83.79
2022-11-20T02:59:57.902Z,83.90
2022-11-20T03:04:58.742Z,83.91
2022-11-20T03:10:00.903Z,83.43
2022-11-20T03:15:01.708Z,83.57
2022-11-20T03:20:02.518Z,83.92
2022-11-20T03:25:05.429Z,83.54
2022-11-20T03:30:07.492Z,83.99
2022-11-20T03:35:09.085Z,83.78
2022-11-20T03:40:12.117Z,84.42
2022-11-20T03:45:13.304Z,83.81
2022-11-20T03:50:15.392Z,83.68
2022-11-20T03:55:17.699Z,83.08
2022-11-20T04:00:18.702Z,83.19
2022-11-20T04:05:19.524Z,83.65
2022-11-20T04:10:22.194Z,83.20
2022-11-20T04:15:22.989Z,83.39
2022-11-20T04:20:23.830Z,82.92
2022-11-20T04:25:25.937Z,83.11
2022-11-20T04:30:26.722Z,83.24
2022-11-20T04:35:27.576Z,83.87
2022-11-20T04:40:29.838Z,83.05
2022-11-20T04:45:30.643Z,83.35
2022-11-20T04:50:31.436Z,83.67
2022-11-20T04:55:33.548Z,83.23
2022-11-20T05:00:34.622Z,83.37
2022-11-20T05:05:35.943Z,83.46
2022-11-20T05:10:38.141Z,83.02
2022-11-20T05:15:38.896Z,83.10
2022-11-20T05:20:39.781Z,83.22
2022-11-20T05:25:41.922Z,82.88
2022-11-20T05:30:42.753Z,82.92
2022-11-20T05:35:43.598Z,83.69
2022-11-20T05:40:45.751Z,83.83
2022-11-20T05:45:54.133Z,83.21
2022-11-20T05:50:54.950Z,83.69
2022-11-20T05:56:01.131Z,83.76
2022-11-20T06:01:07.784Z,83.67
2022-11-20T06:06:09.064Z,83.35
2022-11-20T06:11:13.411Z,83.06
2022-11-20T06:16:16.683Z,83.88
2022-11-20T06:21:19.056Z,83.33
2022-11-20T06:26:23.327Z,83.49
2022-11-20T06:31:26.432Z,83.23
2022-11-20T06:36:27.206Z,83.21
2022-11-20T06:41:29.955Z,82.70
2022-11-20T06:46:30.751Z,82.48
2022-11-20T06:51:31.548Z,82.40
2022-11-20T06:56:33.775Z,82.52
2022-11-20T07:01:34.688Z,82.00
2022-11-20T07:06:35.507Z,82.19
2022-11-20T07:11:37.726Z,82.79
2022-11-20T07:16:38.496Z,82.26
2022-11-20T07:21:39.321Z,82.28
2022-11-20T07:26:41.449Z,81.74
2022-11-20T07:31:44.826Z,81.92
2022-11-20T07:36:45.666Z,82.10
2022-11-20T07:41:47.865Z,81.85
2022-11-20T07:46:48.723Z,81.95
2022-11-20T07:51:52.397Z,81.47
2022-11-20T07:56:55.967Z,83.79
2022-11-20T08:01:57.288Z,82.01
2022-11-20T08:06:58.290Z,81.55
2022-11-20T08:12:17.704Z,81.49
2022-11-20T08:17:18.566Z,81.06
2022-11-20T08:22:19.618Z,81.34
2022-11-20T08:27:21.931Z,81.20
2022-11-20T08:32:22.753Z,80.31
2022-11-20T08:37:23.678Z,79.97
2022-11-20T08:42:25.868Z,79.85
2022-11-20T08:47:26.703Z,79.65
2022-11-20T08:52:27.484Z,79.47
2022-11-20T08:57:29.723Z,79.29
2022-11-20T09:02:30.556Z,78.86
2022-11-20T09:07:32.209Z,78.75
2022-11-20T09:12:34.411Z,77.93
2022-11-20T09:17:35.221Z,78.17
2022-11-20T09:22:36.084Z,77.81
2022-11-20T09:27:38.336Z,76.82
2022-11-20T09:32:40.954Z,75.88
2022-11-20T09:37:41.933Z,75.62
2022-11-20T09:42:49.650Z,74.98
2022-11-20T09:48:12.996Z,75.30
2022-11-20T09:53:18.263Z,74.34
2022-11-20T09:58:30.445Z,73.63
2022-11-20T10:03:42.833Z,73.23
2022-11-20T10:08:47.792Z,72.95
2022-11-20T10:14:01.733Z,71.74
2022-11-20T10:19:20.720Z,70.72
2022-11-20T10:24:46.974Z,69.02
2022-11-20T10:30:01.530Z,68.79
2022-11-20T10:35:06.870Z,68.39
2022-11-20T10:40:22.594Z,67.64
2022-11-20T10:45:39.050Z,67.16
2022-11-20T10:50:46.699Z,66.33
2022-11-20T10:55:52.688Z,63.64
2022-11-20T11:01:05.721Z,63.36
2022-11-20T11:06:14.382Z,63.97
2022-11-20T11:11:23.561Z,64.24
2022-11-20T11:16:28.042Z,64.49
2022-11-20T11:21:28.845Z,64.11
2022-11-20T11:26:30.028Z,63.61
2022-11-20T11:31:33.829Z,63.99
2022-11-20T11:36:36.394Z,65.92
2022-11-20T11:41:37.406Z,65.21
2022-11-20T11:46:41.355Z,66.25
2022-11-20T11:51:55.188Z,67.20
2022-11-20T11:56:56.369Z,69.19
2022-11-20T12:02:02.914Z,69.54
2022-11-20T12:07:38.924Z,70.01
2022-11-20T12:12:39.098Z,70.38
2022-11-20T12:17:41.339Z,70.43
2022-11-20T12:22:52.486Z,70.31
2022-11-20T12:28:14.516Z,70.05
2022-11-20T12:33:32.579Z,69.48
2022-11-20T12:38:49.649Z,68.73
2022-11-20T12:44:25.028Z,70.17
2022-11-20T12:49:38.865Z,70.68
2022-11-20T12:55:05.150Z,70.58
2022-11-20T13:00:19.966Z,70.97
2022-11-20T13:05:26.594Z,70.73
2022-11-20T13:10:36.434Z,71.18
2022-11-20T13:15:51.346Z,71.93
2022-11-20T13:20:53.740Z,73.00
2022-11-20T13:26:06.405Z,73.03
2022-11-20T13:31:07.988Z,72.82
2022-11-20T13:36:25.248Z,72.42
2022-11-20T13:41:32.106Z,72.09
2022-11-20T13:46:40.488Z,72.90
2022-11-20T13:51:46.911Z,72.90
2022-11-20T13:57:01.080Z,72.67
2022-11-20T14:02:02.620Z,73.07
2022-11-20T14:07:08.312Z,72.69
2022-11-20T14:12:17.744Z,72.17
2022-11-20T14:17:21.379Z,71.73
2022-11-20T14:22:25.135Z,71.56
2022-11-20T14:27:26.037Z,71.95
2022-11-20T14:32:31.478Z,72.28
2022-11-20T14:37:36.264Z,72.52
2022-11-20T14:42:38.365Z,73.49
2022-11-20T14:47:39.430Z,74.15
2022-11-20T14:52:52.828Z,74.61
2022-11-20T14:57:57.923Z,75.63
2022-11-20T15:02:59.056Z,75.59
2022-11-20T15:08:12.594Z,76.32
2022-11-20T15:13:15.551Z,76.24
2022-11-20T15:18:18.815Z,76.45
2022-11-20T15:23:22.076Z,77.29
2022-11-20T15:28:29.479Z,77.10
2022-11-20T15:33:30.482Z,78.77
2022-11-20T15:38:32.736Z,79.01
2022-11-20T15:43:33.699Z,79.12
2022-11-20T15:48:41.999Z,80.02
2022-11-20T15:53:46.903Z,79.69
2022-11-20T15:58:47.837Z,80.29
2022-11-20T16:03:49.379Z,80.62
2022-11-20T16:08:51.645Z,79.83
2022-11-20T16:14:10.809Z,80.88
2022-11-20T16:19:12.931Z,79.88
2022-11-20T16:24:16.511Z,78.58
2022-11-20T16:29:17.368Z,79.04
2022-11-20T16:34:19.581Z,79.04
2022-11-20T16:39:23.915Z,78.97
2022-11-20T16:44:25.601Z,79.33
2022-11-20T16:49:26.950Z,80.09
2022-11-20T16:54:29.269Z,80.10
2022-11-20T16:59:30.081Z,80.39
2022-11-20T17:04:30.876Z,81.49
2022-11-20T17:09:33.023Z,82.17
2022-11-20T17:14:33.894Z,82.56
2022-11-20T17:19:34.711Z,82.73
2022-11-20T17:24:37.197Z,82.47
2022-11-20T17:29:42.018Z,82.92
2022-11-20T17:34:43.036Z,83.26
2022-11-20T17:39:45.602Z,83.59
2022-11-20T17:44:47.399Z,83.41
2022-11-20T17:49:48.239Z,83.88
2022-11-20T17:54:52.567Z,84.01
2022-11-20T17:59:53.538Z,84.21
2022-11-20T18:04:54.695Z,84.34
2022-11-20T18:09:56.870Z,84.50
2022-11-20T18:14:57.730Z,84.51
2022-11-20T18:20:31.069Z,87.94
2022-11-20T18:25:21.080Z,84.59
2022-11-20T18:30:21.919Z,84.00
2022-11-20T18:35:22.742Z,84.37
2022-11-20T18:40:24.991Z,84.69
2022-11-20T18:45:25.758Z,84.36
2022-11-20T18:50:26.732Z,84.54
2022-11-20T18:55:28.934Z,84.83
2022-11-20T19:00:29.839Z,84.67
2022-11-20T19:05:30.731Z,84.64
2022-11-20T19:10:32.882Z,84.66
2022-11-20T19:15:36.986Z,84.67
2022-11-20T19:20:37.834Z,85.12
2022-11-20T19:25:40.084Z,85.53
2022-11-20T19:30:41.756Z,85.77
2022-11-20T19:35:42.527Z,85.70
2022-11-20T19:40:44.956Z,85.58
2022-11-20T19:45:45.793Z,85.70
2022-11-20T19:50:46.685Z,85.66
2022-11-20T19:55:57.895Z,85.79
2022-11-20T20:00:58.794Z,85.70
2022-11-20T20:06:02.629Z,85.75
2022-11-20T20:11:12.845Z,85.75
2022-11-20T20:16:16.038Z,85.53
2022-11-20T20:21:18.727Z,85.22
2022-11-20T20:26:21.633Z,85.50
2022-11-20T20:31:24.537Z,85.23
2022-11-20T20:36:26.212Z,84.93
2022-11-20T20:41:28.406Z,84.78
2022-11-20T20:46:29.178Z,84.79
2022-11-20T20:51:30.251Z,84.06
2022-11-20T20:56:32.519Z,84.44
2022-11-20T21:01:33.604Z,83.81
2022-11-20T21:06:34.446Z,84.10
2022-11-20T21:11:36.622Z,84.08
2022-11-20T21:16:43.865Z,83.69
2022-11-20T21:22:03.871Z,84.31
2022-11-20T21:27:07.356Z,83.81
2022-11-20T21:32:08.157Z,84.09
2022-11-20T21:37:08.918Z,83.54
2022-11-20T21:42:11.148Z,83.05
2022-11-20T21:47:13.333Z,82.81
2022-11-20T21:52:14.144Z,86.51
2022-11-20T21:57:16.357Z,84.26
2022-11-20T22:02:17.337Z,82.42
2022-11-20T22:07:18.303Z,81.24
2022-11-20T22:12:20.947Z,81.60
2022-11-20T22:17:42.589Z,81.47
2022-11-20T22:22:43.385Z,80.52
2022-11-20T22:27:47.423Z,80.97
2022-11-20T22:32:48.183Z,81.02
2022-11-20T22:37:50.382Z,80.60
2022-11-20T22:42:52.522Z,80.51
2022-11-20T22:47:53.413Z,81.04
2022-11-20T22:52:54.406Z,80.45
2022-11-20T22:57:57.417Z,80.67
2022-11-20T23:02:58.205Z,81.06
2022-11-20T23:07:58.997Z,81.75
2022-11-20T23:13:01.186Z,82.95
2022-11-20T23:18:01.952Z,83.34
2022-11-20T23:23:02.719Z,84.27
2022-11-20T23:28:05.130Z,85.03
2022-11-20T23:33:06.096Z,85.76
2022-11-20T23:38:07.027Z,85.82
2022-11-20T23:43:18.246Z,85.69
2022-11-20T23:48:20.174Z,85.59
2022-11-20T23:53:22.024Z,86.25
2022-11-20T23:58:26.028Z,86.06
